Piney View, West Virginia
Current Conditions -  °F | °C
As of 1:51 PM on Friday 31 Oct 2014 (Local Time) from KBKW Reporting Station
Overcast Overcast  
Wind Chill: 43°   Ceiling: 2500
Heat Index: 45°   Visibility: 10mi
Dew Point: 33°   Wind: 5mph
Humidity: 63%   Direction: 260°W
Pressure: 29.85"   Gusts: NA
Location:  37.85°N, 81.14°W
Report Text: KBKW 311751Z AUTO 26004KT 10SM BKN025 BKN031 OVC043 07/01 A2985 RMK AO2 SLP123 T00720006 10078 20000 58023 TSNO
Loading
Personal Weather Stations






























Interactive Weather Map
Tropical Storm Tracking
New forecast layout! Learn more

10-Day Weather Forecast

Advertisements
Track Severe Weather on mobile